createdAt,value
2019-03-01T00:01:19.539Z,8.90
2019-03-01T00:04:08.130Z,8.90
2019-03-01T00:07:35.163Z,8.90
2019-03-01T00:10:18.517Z,8.90
2019-03-01T00:13:24.528Z,8.90
2019-03-01T00:16:09.514Z,8.90
2019-03-01T00:18:54.459Z,9.00
2019-03-01T00:22:06.293Z,8.80
2019-03-01T00:25:13.686Z,8.80
2019-03-01T00:27:59.509Z,8.80
2019-03-01T00:31:11.455Z,8.80
2019-03-01T00:34:32.545Z,8.80
2019-03-01T00:37:40.876Z,8.80
2019-03-01T00:40:36.224Z,8.80
2019-03-01T00:43:50.108Z,8.80
2019-03-01T00:46:17.821Z,8.80
2019-03-01T00:48:47.476Z,8.80
2019-03-01T00:51:15.067Z,8.80
2019-03-01T00:53:42.710Z,8.80
2019-03-01T00:56:10.267Z,8.80
2019-03-01T00:58:37.827Z,8.80
2019-03-01T01:01:05.490Z,8.70
2019-03-01T01:03:33.092Z,8.60
2019-03-01T01:06:02.854Z,8.40
2019-03-01T01:08:30.556Z,8.30
2019-03-01T01:11:00.885Z,8.20
2019-03-01T01:13:28.421Z,8.20
2019-03-01T01:15:56.305Z,8.10
2019-03-01T01:18:23.908Z,8.10
2019-03-01T01:20:51.607Z,8.10
2019-03-01T01:23:19.168Z,8.00
2019-03-01T01:25:47.698Z,8.00
2019-03-01T01:28:15.287Z,8.00
2019-03-01T01:30:45.857Z,7.90
2019-03-01T01:33:13.433Z,8.00
2019-03-01T01:35:41.015Z,8.00
2019-03-01T01:38:08.634Z,8.00
2019-03-01T01:40:36.282Z,8.00
2019-03-01T01:43:03.875Z,8.00
2019-03-01T01:45:31.571Z,8.00
2019-03-01T01:47:59.156Z,8.00
2019-03-01T01:50:26.753Z,8.00
2019-03-01T01:52:54.418Z,8.00
2019-03-01T01:55:22.077Z,8.00
2019-03-01T01:57:49.632Z,7.90
2019-03-01T02:00:17.378Z,8.00
2019-03-01T02:02:44.934Z,8.00
2019-03-01T02:05:12.731Z,8.00
2019-03-01T02:07:40.638Z,8.00
2019-03-01T02:10:08.693Z,8.10
2019-03-01T02:12:36.522Z,8.00
2019-03-01T02:15:05.537Z,8.00
2019-03-01T02:17:33.211Z,8.00
2019-03-01T02:20:00.755Z,8.00
2019-03-01T02:22:28.463Z,8.00
2019-03-01T02:24:56.055Z,7.90
2019-03-01T02:27:28.312Z,7.90
2019-03-01T02:29:56.682Z,7.80
2019-03-01T02:32:47.185Z,7.80
2019-03-01T02:35:16.659Z,7.70
2019-03-01T02:38:03.750Z,7.70
2019-03-01T02:52:45.235Z,7.60
2019-03-01T04:06:39.318Z,7.40
2019-03-01T04:27:26.226Z,7.30
2019-03-01T04:33:54.605Z,7.40
2019-03-01T04:36:43.745Z,7.40
2019-03-01T05:08:46.901Z,7.30
2019-03-01T05:17:29.888Z,7.30
2019-03-01T05:38:22.003Z,7.30
2019-03-01T05:45:12.700Z,7.40
2019-03-01T05:50:53.055Z,7.40
2019-03-01T07:03:51.890Z,7.60
2019-03-01T08:33:14.311Z,8.50
2019-03-01T09:00:23.078Z,8.70
2019-03-01T09:06:13.487Z,8.70
2019-03-01T09:28:04.431Z,9.00
2019-03-01T09:30:44.715Z,8.90
2019-03-01T09:33:42.351Z,8.80
2019-03-01T09:36:46.610Z,8.80
2019-03-01T09:42:31.837Z,9.00
2019-03-01T09:45:36.253Z,9.20
2019-03-01T09:54:16.975Z,9.60
2019-03-01T09:56:57.117Z,9.50
2019-03-01T10:03:15.529Z,9.40
2019-03-01T10:12:19.336Z,9.40
2019-03-01T10:14:59.786Z,9.50
2019-03-01T10:27:07.661Z,9.50
2019-03-01T10:29:48.175Z,9.50
2019-03-01T10:36:47.812Z,9.80
2019-03-01T10:39:21.129Z,9.70
2019-03-01T10:41:52.664Z,9.70
2019-03-01T10:48:07.164Z,10.30
2019-03-01T10:50:54.251Z,10.30
2019-03-01T10:53:56.604Z,10.10
2019-03-01T10:56:29.018Z,10.10
2019-03-01T10:59:11.785Z,10.30
2019-03-01T11:01:44.646Z,10.20
2019-03-01T11:04:14.921Z,9.90
2019-03-01T11:07:52.304Z,10.00
2019-03-01T11:10:47.841Z,9.90
2019-03-01T11:13:28.123Z,10.00
2019-03-01T11:16:33.646Z,10.00
2019-03-01T11:19:24.307Z,10.10
2019-03-01T11:22:08.937Z,10.30
2019-03-01T11:24:37.931Z,10.40
2019-03-01T11:27:12.770Z,10.40
2019-03-01T11:29:39.291Z,10.40
2019-03-01T11:32:23.495Z,10.50
2019-03-01T11:35:52.119Z,10.60
2019-03-01T11:41:31.964Z,10.40
2019-03-01T11:44:07.845Z,10.30
2019-03-01T11:46:41.203Z,10.20
2019-03-01T11:49:18.478Z,10.10
2019-03-01T11:52:01.256Z,10.00
2019-03-01T11:54:49.134Z,10.00
2019-03-01T11:57:24.078Z,9.90
2019-03-01T12:00:02.114Z,10.00
2019-03-01T12:02:59.127Z,9.90
2019-03-01T12:05:29.907Z,10.00
2019-03-01T12:07:57.561Z,10.00
2019-03-01T12:11:04.127Z,10.00
2019-03-01T12:13:46.754Z,9.90
2019-03-01T12:16:49.600Z,9.90
2019-03-01T12:19:39.099Z,9.80
2019-03-01T12:22:21.719Z,9.90
2019-03-01T12:24:50.807Z,9.90
2019-03-01T12:27:18.491Z,9.90
2019-03-01T12:29:46.490Z,10.10
2019-03-01T12:32:22.677Z,10.20
2019-03-01T12:35:06.827Z,10.30
2019-03-01T12:37:41.732Z,10.50
2019-03-01T12:40:12.126Z,10.70
2019-03-01T12:42:44.554Z,10.70
2019-03-01T12:45:13.236Z,10.90
2019-03-01T12:48:16.650Z,11.00
2019-03-01T12:50:47.586Z,10.90
2019-03-01T12:53:20.848Z,10.90
2019-03-01T12:55:55.872Z,10.70
2019-03-01T12:58:23.545Z,10.70
2019-03-01T13:00:51.185Z,10.90
2019-03-01T13:03:32.416Z,10.90
2019-03-01T13:06:31.773Z,10.90
2019-03-01T13:09:14.103Z,10.90
2019-03-01T13:11:44.808Z,10.80
2019-03-01T13:15:06.406Z,10.90
2019-03-01T13:18:03.833Z,10.90
2019-03-01T13:20:44.592Z,11.20
2019-03-01T13:23:15.239Z,11.40
2019-03-01T13:25:44.222Z,11.70
2019-03-01T13:28:32.884Z,11.80
2019-03-01T13:31:14.530Z,11.90
2019-03-01T13:33:58.985Z,12.00
2019-03-01T13:36:42.165Z,11.70
2019-03-01T13:39:23.387Z,11.70
2019-03-01T13:42:01.787Z,11.70
2019-03-01T13:44:51.550Z,11.50
2019-03-01T14:04:20.153Z,11.00
2019-03-01T14:22:48.059Z,11.20
2019-03-01T14:28:38.004Z,10.90
2019-03-01T14:56:04.945Z,9.90
2019-03-01T15:05:05.098Z,9.90
2019-03-01T15:10:59.143Z,9.60
2019-03-01T15:14:31.898Z,9.20
2019-03-01T15:17:05.020Z,9.00
2019-03-01T15:19:35.781Z,8.80
2019-03-01T15:22:26.934Z,8.70
2019-03-01T15:25:08.201Z,8.60
2019-03-01T15:27:39.753Z,8.50
2019-03-01T15:30:16.494Z,8.40
2019-03-01T15:32:58.988Z,8.30
2019-03-01T15:35:55.182Z,8.20
2019-03-01T15:38:55.607Z,8.30
2019-03-01T15:41:32.289Z,8.20
2019-03-01T15:44:00.354Z,8.20
2019-03-01T15:46:28.018Z,8.20
2019-03-01T15:48:57.175Z,8.20
2019-03-01T15:51:28.277Z,8.30
2019-03-01T15:53:57.594Z,8.20
2019-03-01T15:56:30.470Z,8.10
2019-03-01T16:00:02.695Z,8.20
2019-03-01T16:02:36.227Z,8.10
2019-03-01T16:05:17.162Z,8.20
2019-03-01T16:11:35.905Z,8.10
2019-03-01T16:14:10.515Z,8.10
2019-03-01T16:16:39.970Z,8.00
2019-03-01T16:19:27.093Z,8.00
2019-03-01T16:22:08.701Z,8.00
2019-03-01T16:24:41.582Z,8.00
2019-03-01T16:27:30.914Z,7.90
2019-03-01T16:30:08.305Z,8.00
2019-03-01T16:33:11.815Z,7.90
2019-03-01T16:36:41.077Z,7.90
2019-03-01T16:39:40.332Z,8.00
2019-03-01T16:49:00.582Z,8.10
2019-03-01T16:51:28.302Z,8.10
2019-03-01T16:53:56.059Z,8.10
2019-03-01T16:56:23.804Z,8.10
2019-03-01T16:58:51.507Z,8.00
2019-03-01T17:01:19.414Z,8.00
2019-03-01T17:03:49.574Z,8.00
2019-03-01T17:06:17.027Z,8.00
2019-03-01T17:08:44.827Z,8.00
2019-03-01T17:11:13.549Z,8.00
2019-03-01T17:13:44.160Z,8.10
2019-03-01T17:16:14.500Z,8.00
2019-03-01T17:18:44.659Z,8.00
2019-03-01T17:21:15.849Z,8.00
2019-03-01T17:23:44.523Z,8.10
2019-03-01T17:26:12.403Z,8.10
2019-03-01T17:28:40.272Z,8.10
2019-03-01T17:31:12.260Z,8.10
2019-03-01T17:33:45.056Z,8.10
2019-03-01T17:36:16.735Z,8.10
2019-03-01T17:38:45.999Z,8.10
2019-03-01T17:41:14.294Z,8.10
2019-03-01T17:43:42.206Z,8.20
2019-03-01T17:46:09.929Z,8.10
2019-03-01T17:48:45.564Z,8.10
2019-03-01T17:51:13.643Z,8.10
2019-03-01T17:53:46.459Z,8.20
2019-03-01T17:56:21.564Z,8.10
2019-03-01T17:58:50.035Z,8.00
2019-03-01T18:01:24.800Z,7.90
2019-03-01T18:03:53.023Z,7.90
2019-03-01T18:06:24.720Z,7.90
2019-03-01T18:08:54.871Z,7.90
2019-03-01T18:11:26.162Z,7.90
2019-03-01T18:13:56.925Z,7.90
2019-03-01T18:16:31.285Z,7.80
2019-03-01T18:19:02.503Z,7.80
2019-03-01T18:21:30.182Z,7.80
2019-03-01T18:24:02.347Z,7.80
2019-03-01T18:26:29.944Z,7.80
2019-03-01T18:29:00.960Z,7.90
2019-03-01T18:31:36.613Z,7.90
2019-03-01T18:34:04.677Z,7.90
2019-03-01T18:36:35.344Z,7.90
2019-03-01T18:39:06.871Z,7.80
2019-03-01T18:41:49.924Z,7.80
2019-03-01T18:44:17.786Z,7.70
2019-03-01T18:46:51.571Z,7.70
2019-03-01T18:49:19.779Z,7.60
2019-03-01T18:51:50.769Z,7.70
2019-03-01T18:54:21.034Z,7.70
2019-03-01T18:56:52.581Z,7.60
2019-03-01T18:59:21.638Z,7.60
2019-03-01T19:01:50.584Z,7.60
2019-03-01T19:04:29.657Z,7.60
2019-03-01T19:06:52.871Z,7.60
2019-03-01T19:09:23.430Z,7.60
2019-03-01T19:11:51.561Z,7.50
2019-03-01T19:14:25.988Z,7.50
2019-03-01T19:16:54.088Z,7.50
2019-03-01T19:19:23.973Z,7.60
2019-03-01T19:21:54.358Z,7.60
2019-03-01T19:24:23.480Z,7.50
2019-03-01T19:26:51.500Z,7.50
2019-03-01T19:29:19.777Z,7.40
2019-03-01T19:31:48.204Z,7.40
2019-03-01T19:34:20.864Z,7.40
2019-03-01T19:36:50.847Z,7.30
2019-03-01T19:39:22.656Z,7.30
2019-03-01T19:42:00.227Z,7.40
2019-03-01T19:44:34.486Z,7.40
2019-03-01T19:47:02.929Z,7.40
2019-03-01T19:49:31.505Z,7.40
2019-03-01T19:52:02.790Z,7.30
2019-03-01T19:54:32.454Z,7.40
2019-03-01T19:57:01.529Z,7.40
2019-03-01T19:59:33.620Z,7.40
2019-03-01T20:02:01.265Z,7.30
2019-03-01T20:04:29.250Z,7.30
2019-03-01T20:06:56.867Z,7.30
2019-03-01T20:09:27.038Z,7.40
2019-03-01T20:11:59.286Z,7.40
2019-03-01T20:14:33.802Z,7.40
2019-03-01T20:17:11.261Z,7.40
2019-03-01T20:19:40.286Z,7.50
2019-03-01T20:22:07.982Z,7.40
2019-03-01T20:24:40.069Z,7.30
2019-03-01T20:27:09.614Z,7.30
2019-03-01T20:29:40.066Z,7.20
2019-03-01T20:32:07.957Z,7.20
2019-03-01T20:34:39.124Z,7.20
2019-03-01T20:37:06.813Z,7.30
2019-03-01T20:39:40.568Z,7.30
2019-03-01T20:42:09.678Z,7.30
2019-03-01T20:44:39.545Z,7.20
2019-03-01T20:47:18.589Z,7.20
2019-03-01T20:49:47.096Z,7.30
2019-03-01T20:52:14.804Z,7.20
2019-03-01T20:54:45.622Z,7.20
2019-03-01T20:57:17.105Z,7.20
2019-03-01T20:59:46.891Z,7.20
2019-03-01T21:02:17.702Z,7.10
2019-03-01T21:04:53.284Z,7.10
2019-03-01T21:07:23.311Z,7.00
2019-03-01T21:09:51.161Z,7.00
2019-03-01T21:12:19.011Z,6.90
2019-03-01T21:14:49.420Z,6.80
2019-03-01T21:17:20.369Z,6.60
2019-03-01T21:19:49.570Z,6.60
2019-03-01T21:22:20.197Z,6.50
2019-03-01T21:24:47.982Z,6.50
2019-03-01T21:27:18.101Z,6.50
2019-03-01T21:29:47.562Z,6.40
2019-03-01T21:32:16.308Z,6.40
2019-03-01T21:34:44.296Z,6.40
2019-03-01T21:37:16.672Z,6.30
2019-03-01T21:39:44.248Z,6.30
2019-03-01T21:42:12.760Z,6.30
2019-03-01T21:44:45.634Z,6.20
2019-03-01T21:47:13.662Z,6.20
2019-03-01T21:49:41.420Z,6.10
2019-03-01T21:52:09.525Z,6.10
2019-03-01T21:54:37.334Z,6.10
2019-03-01T21:57:05.006Z,6.20
2019-03-01T21:59:33.275Z,6.10
2019-03-01T22:02:01.088Z,6.00
2019-03-01T22:04:30.471Z,6.10
2019-03-01T22:07:02.740Z,6.10
2019-03-01T22:09:33.411Z,6.10
2019-03-01T22:12:04.427Z,6.10
2019-03-01T22:14:34.148Z,6.10
2019-03-01T22:17:04.815Z,6.10
2019-03-01T22:19:33.682Z,6.00
2019-03-01T22:22:02.095Z,5.90
2019-03-01T22:24:30.084Z,6.00
2019-03-01T22:26:57.774Z,6.00
2019-03-01T22:29:25.663Z,6.00
2019-03-01T22:31:53.555Z,6.00
2019-03-01T22:34:31.036Z,6.00
2019-03-01T22:36:59.835Z,6.00
2019-03-01T22:39:27.711Z,6.00
2019-03-01T22:41:58.345Z,6.00
2019-03-01T22:44:29.091Z,5.90
2019-03-01T22:46:57.912Z,5.80
2019-03-01T22:49:28.543Z,5.80
2019-03-01T22:51:56.197Z,5.60
2019-03-01T22:54:24.011Z,5.60
2019-03-01T22:56:52.610Z,5.60
2019-03-01T22:59:20.806Z,5.60
2019-03-01T23:01:51.086Z,5.50
2019-03-01T23:04:18.979Z,5.50
2019-03-01T23:06:47.514Z,5.50
2019-03-01T23:09:17.530Z,5.50
2019-03-01T23:11:49.034Z,5.40
2019-03-01T23:14:16.927Z,5.40
2019-03-01T23:16:45.841Z,5.40
2019-03-01T23:19:17.091Z,5.40
2019-03-01T23:21:44.783Z,5.40
2019-03-01T23:24:12.468Z,5.20
2019-03-01T23:26:40.378Z,5.20
2019-03-01T23:29:08.027Z,5.10
2019-03-01T23:31:38.760Z,5.20
2019-03-01T23:34:07.056Z,5.20
2019-03-01T23:36:34.773Z,5.20
2019-03-01T23:39:05.078Z,5.30
2019-03-01T23:41:33.144Z,5.30
2019-03-01T23:44:02.789Z,5.40
2019-03-01T23:46:30.753Z,5.30
2019-03-01T23:49:06.033Z,5.30
2019-03-01T23:51:30.088Z,5.30
2019-03-01T23:53:57.723Z,5.40
2019-03-01T23:56:26.820Z,5.40
2019-03-01T23:58:57.007Z,5.30
